sensor_id;sensor_type;location;lat;lon;timestamp;P1;durP1;ratioP1;P2;durP2;ratioP2
62353;SDS011;48391;49.184;2.418;2022-10-16T00:01:13;0.40;;;0.30;;
62353;SDS011;48391;49.184;2.418;2022-10-16T00:03:39;0.73;;;0.32;;
62353;SDS011;48391;49.184;2.418;2022-10-16T00:06:06;0.13;;;0.10;;
62353;SDS011;48391;49.184;2.418;2022-10-16T00:08:32;0.90;;;0.70;;
62353;SDS011;48391;49.184;2.418;2022-10-16T00:10:59;0.63;;;0.20;;
62353;SDS011;48391;49.184;2.418;2022-10-16T00:13:25;0.22;;;0.20;;
62353;SDS011;48391;49.184;2.418;2022-10-16T00:15:54;0.85;;;0.43;;
62353;SDS011;48391;49.184;2.418;2022-10-16T00:18:20;0.20;;;0.20;;
62353;SDS011;48391;49.184;2.418;2022-10-16T00:20:46;0.15;;;0.05;;
62353;SDS011;48391;49.184;2.418;2022-10-16T00:23:12;0.00;;;0.00;;
62353;SDS011;48391;49.184;2.418;2022-10-16T00:25:38;0.10;;;0.10;;
62353;SDS011;48391;49.184;2.418;2022-10-16T00:28:04;0.10;;;0.10;;
62353;SDS011;48391;49.184;2.418;2022-10-16T00:30:30;0.10;;;0.00;;
62353;SDS011;48391;49.184;2.418;2022-10-16T00:32:56;0.20;;;0.00;;
62353;SDS011;48391;49.184;2.418;2022-10-16T00:35:22;0.00;;;0.00;;
62353;SDS011;48391;49.184;2.418;2022-10-16T00:37:48;0.00;;;0.00;;
62353;SDS011;48391;49.184;2.418;2022-10-16T00:40:14;0.13;;;0.13;;
62353;SDS011;48391;49.184;2.418;2022-10-16T00:42:40;0.10;;;0.00;;
62353;SDS011;48391;49.184;2.418;2022-10-16T00:45:07;0.30;;;0.10;;
62353;SDS011;48391;49.184;2.418;2022-10-16T00:47:36;0.00;;;0.00;;
62353;SDS011;48391;49.184;2.418;2022-10-16T00:52:31;0.10;;;0.00;;
62353;SDS011;48391;49.184;2.418;2022-10-16T00:54:57;0.00;;;0.00;;
62353;SDS011;48391;49.184;2.418;2022-10-16T00:57:24;0.13;;;0.10;;
62353;SDS011;48391;49.184;2.418;2022-10-16T00:59:50;0.45;;;0.10;;
62353;SDS011;48391;49.184;2.418;2022-10-16T01:02:17;0.25;;;0.10;;
62353;SDS011;48391;49.184;2.418;2022-10-16T01:04:44;0.05;;;0.00;;
62353;SDS011;48391;49.184;2.418;2022-10-16T01:15:04;0.28;;;0.10;;
62353;SDS011;48391;49.184;2.418;2022-10-16T01:17:40;0.10;;;0.10;;
62353;SDS011;48391;49.184;2.418;2022-10-16T01:22:51;0.20;;;0.10;;
62353;SDS011;48391;49.184;2.418;2022-10-16T01:25:25;0.25;;;0.10;;
62353;SDS011;48391;49.184;2.418;2022-10-16T01:27:55;0.10;;;0.10;;
62353;SDS011;48391;49.184;2.418;2022-10-16T01:30:23;0.08;;;0.08;;
62353;SDS011;48391;49.184;2.418;2022-10-16T01:33:27;0.10;;;0.00;;
62353;SDS011;48391;49.184;2.418;2022-10-16T01:35:47;0.08;;;0.00;;
62353;SDS011;48391;49.184;2.418;2022-10-16T01:40:49;0.15;;;0.10;;
62353;SDS011;48391;49.184;2.418;2022-10-16T01:43:18;1.30;;;0.10;;
62353;SDS011;48391;49.184;2.418;2022-10-16T01:45:45;0.20;;;0.08;;
62353;SDS011;48391;49.184;2.418;2022-10-16T01:48:16;0.35;;;0.10;;
62353;SDS011;48391;49.184;2.418;2022-10-16T01:50:43;0.00;;;0.00;;
62353;SDS011;48391;49.184;2.418;2022-10-16T01:53:10;0.30;;;0.17;;
62353;SDS011;48391;49.184;2.418;2022-10-16T01:55:41;1.52;;;0.90;;
62353;SDS011;48391;49.184;2.418;2022-10-16T01:58:10;1.10;;;1.00;;
62353;SDS011;48391;49.184;2.418;2022-10-16T02:00:37;1.88;;;1.75;;
62353;SDS011;48391;49.184;2.418;2022-10-16T02:03:03;2.38;;;2.13;;
62353;SDS011;48391;49.184;2.418;2022-10-16T02:05:32;2.88;;;1.80;;
62353;SDS011;48391;49.184;2.418;2022-10-16T02:07:59;1.45;;;1.35;;
62353;SDS011;48391;49.184;2.418;2022-10-16T02:10:25;2.75;;;1.52;;
62353;SDS011;48391;49.184;2.418;2022-10-16T02:13:00;2.25;;;1.67;;
62353;SDS011;48391;49.184;2.418;2022-10-16T02:15:26;1.52;;;1.20;;
62353;SDS011;48391;49.184;2.418;2022-10-16T02:17:52;1.08;;;1.00;;
62353;SDS011;48391;49.184;2.418;2022-10-16T02:20:19;0.95;;;0.63;;
62353;SDS011;48391;49.184;2.418;2022-10-16T02:22:48;0.70;;;0.70;;
62353;SDS011;48391;49.184;2.418;2022-10-16T02:28:01;1.08;;;0.63;;
62353;SDS011;48391;49.184;2.418;2022-10-16T02:32:58;0.45;;;0.35;;
62353;SDS011;48391;49.184;2.418;2022-10-16T02:35:26;0.93;;;0.40;;
62353;SDS011;48391;49.184;2.418;2022-10-16T02:37:53;0.13;;;0.10;;
62353;SDS011;48391;49.184;2.418;2022-10-16T02:40:20;0.35;;;0.30;;
62353;SDS011;48391;49.184;2.418;2022-10-16T02:42:49;3.10;;;0.40;;
62353;SDS011;48391;49.184;2.418;2022-10-16T02:45:15;0.47;;;0.10;;
62353;SDS011;48391;49.184;2.418;2022-10-16T02:47:41;0.85;;;0.30;;
62353;SDS011;48391;49.184;2.418;2022-10-16T02:50:07;0.15;;;0.08;;
62353;SDS011;48391;49.184;2.418;2022-10-16T02:52:33;0.08;;;0.00;;
62353;SDS011;48391;49.184;2.418;2022-10-16T02:54:59;0.43;;;0.22;;
62353;SDS011;48391;49.184;2.418;2022-10-16T02:57:25;0.10;;;0.00;;
62353;SDS011;48391;49.184;2.418;2022-10-16T02:59:51;0.10;;;0.10;;
62353;SDS011;48391;49.184;2.418;2022-10-16T03:02:17;0.30;;;0.20;;
62353;SDS011;48391;49.184;2.418;2022-10-16T03:04:44;0.10;;;0.03;;
62353;SDS011;48391;49.184;2.418;2022-10-16T03:07:10;0.20;;;0.13;;
62353;SDS011;48391;49.184;2.418;2022-10-16T03:09:36;0.10;;;0.10;;
62353;SDS011;48391;49.184;2.418;2022-10-16T03:12:02;0.00;;;0.00;;
62353;SDS011;48391;49.184;2.418;2022-10-16T03:14:28;0.68;;;0.17;;
62353;SDS011;48391;49.184;2.418;2022-10-16T03:16:54;0.00;;;0.00;;
62353;SDS011;48391;49.184;2.418;2022-10-16T03:19:20;0.00;;;0.00;;
62353;SDS011;48391;49.184;2.418;2022-10-16T03:21:46;0.47;;;0.13;;
62353;SDS011;48391;49.184;2.418;2022-10-16T03:24:12;0.20;;;0.10;;
62353;SDS011;48391;49.184;2.418;2022-10-16T03:26:38;0.20;;;0.05;;
62353;SDS011;48391;49.184;2.418;2022-10-16T03:29:04;0.55;;;0.00;;
62353;SDS011;48391;49.184;2.418;2022-10-16T03:31:31;0.10;;;0.10;;
62353;SDS011;48391;49.184;2.418;2022-10-16T03:33:57;0.00;;;0.00;;
62353;SDS011;48391;49.184;2.418;2022-10-16T03:36:23;0.00;;;0.00;;
62353;SDS011;48391;49.184;2.418;2022-10-16T03:38:50;0.15;;;0.10;;
62353;SDS011;48391;49.184;2.418;2022-10-16T03:41:16;0.15;;;0.00;;
62353;SDS011;48391;49.184;2.418;2022-10-16T03:43:42;0.00;;;0.00;;
62353;SDS011;48391;49.184;2.418;2022-10-16T03:46:08;0.00;;;0.00;;
62353;SDS011;48391;49.184;2.418;2022-10-16T03:48:34;0.08;;;0.08;;
62353;SDS011;48391;49.184;2.418;2022-10-16T03:51:00;0.10;;;0.00;;
62353;SDS011;48391;49.184;2.418;2022-10-16T03:53:26;0.08;;;0.08;;
62353;SDS011;48391;49.184;2.418;2022-10-16T03:55:52;0.00;;;0.00;;
62353;SDS011;48391;49.184;2.418;2022-10-16T03:58:18;0.00;;;0.00;;
62353;SDS011;48391;49.184;2.418;2022-10-16T04:00:45;0.10;;;0.00;;
62353;SDS011;48391;49.184;2.418;2022-10-16T04:03:12;0.13;;;0.00;;
62353;SDS011;48391;49.184;2.418;2022-10-16T04:05:38;0.00;;;0.00;;
62353;SDS011;48391;49.184;2.418;2022-10-16T04:08:04;0.00;;;0.00;;
62353;SDS011;48391;49.184;2.418;2022-10-16T04:10:31;0.00;;;0.00;;
62353;SDS011;48391;49.184;2.418;2022-10-16T04:12:57;0.00;;;0.00;;
62353;SDS011;48391;49.184;2.418;2022-10-16T04:15:23;0.00;;;0.00;;
62353;SDS011;48391;49.184;2.418;2022-10-16T04:17:49;0.00;;;0.00;;
62353;SDS011;48391;49.184;2.418;2022-10-16T04:20:15;0.10;;;0.00;;
62353;SDS011;48391;49.184;2.418;2022-10-16T04:22:41;0.03;;;0.00;;
62353;SDS011;48391;49.184;2.418;2022-10-16T04:25:07;0.13;;;0.13;;
62353;SDS011;48391;49.184;2.418;2022-10-16T04:27:33;0.05;;;0.00;;
62353;SDS011;48391;49.184;2.418;2022-10-16T04:29:59;0.20;;;0.20;;
62353;SDS011;48391;49.184;2.418;2022-10-16T04:32:26;0.17;;;0.10;;
62353;SDS011;48391;49.184;2.418;2022-10-16T04:34:52;0.20;;;0.20;;
62353;SDS011;48391;49.184;2.418;2022-10-16T04:37:18;0.20;;;0.00;;
62353;SDS011;48391;49.184;2.418;2022-10-16T04:39:44;0.30;;;0.30;;
62353;SDS011;48391;49.184;2.418;2022-10-16T04:42:10;0.28;;;0.00;;
62353;SDS011;48391;49.184;2.418;2022-10-16T04:44:36;0.00;;;0.00;;
62353;SDS011;48391;49.184;2.418;2022-10-16T04:47:02;0.00;;;0.00;;
62353;SDS011;48391;49.184;2.418;2022-10-16T04:49:29;0.00;;;0.00;;
62353;SDS011;48391;49.184;2.418;2022-10-16T04:51:55;0.10;;;0.00;;
62353;SDS011;48391;49.184;2.418;2022-10-16T04:54:21;0.20;;;0.20;;
62353;SDS011;48391;49.184;2.418;2022-10-16T04:56:47;0.38;;;0.00;;
62353;SDS011;48391;49.184;2.418;2022-10-16T04:59:16;0.35;;;0.15;;
62353;SDS011;48391;49.184;2.418;2022-10-16T05:01:42;0.17;;;0.00;;
62353;SDS011;48391;49.184;2.418;2022-10-16T05:04:08;0.00;;;0.00;;
62353;SDS011;48391;49.184;2.418;2022-10-16T05:06:34;0.00;;;0.00;;
62353;SDS011;48391;49.184;2.418;2022-10-16T05:09:00;0.10;;;0.10;;
62353;SDS011;48391;49.184;2.418;2022-10-16T05:11:26;0.10;;;0.03;;
62353;SDS011;48391;49.184;2.418;2022-10-16T05:13:52;0.10;;;0.10;;
62353;SDS011;48391;49.184;2.418;2022-10-16T05:16:18;0.30;;;0.15;;
62353;SDS011;48391;49.184;2.418;2022-10-16T05:18:44;0.10;;;0.00;;
62353;SDS011;48391;49.184;2.418;2022-10-16T05:21:10;0.10;;;0.00;;
62353;SDS011;48391;49.184;2.418;2022-10-16T05:23:36;0.20;;;0.05;;
62353;SDS011;48391;49.184;2.418;2022-10-16T05:26:02;0.30;;;0.00;;
62353;SDS011;48391;49.184;2.418;2022-10-16T05:28:29;0.15;;;0.10;;
62353;SDS011;48391;49.184;2.418;2022-10-16T05:30:55;0.00;;;0.00;;
62353;SDS011;48391;49.184;2.418;2022-10-16T05:33:22;0.30;;;0.00;;
62353;SDS011;48391;49.184;2.418;2022-10-16T05:35:48;0.08;;;0.00;;
62353;SDS011;48391;49.184;2.418;2022-10-16T05:38:15;0.00;;;0.00;;
62353;SDS011;48391;49.184;2.418;2022-10-16T05:40:41;0.15;;;0.00;;
62353;SDS011;48391;49.184;2.418;2022-10-16T05:43:07;0.13;;;0.00;;
62353;SDS011;48391;49.184;2.418;2022-10-16T05:45:33;0.00;;;0.00;;
62353;SDS011;48391;49.184;2.418;2022-10-16T05:47:59;0.03;;;0.00;;
62353;SDS011;48391;49.184;2.418;2022-10-16T05:50:26;0.57;;;0.00;;
62353;SDS011;48391;49.184;2.418;2022-10-16T05:52:52;0.00;;;0.00;;
62353;SDS011;48391;49.184;2.418;2022-10-16T05:55:18;0.00;;;0.00;;
62353;SDS011;48391;49.184;2.418;2022-10-16T05:57:44;0.10;;;0.10;;
62353;SDS011;48391;49.184;2.418;2022-10-16T06:00:10;0.10;;;0.10;;
62353;SDS011;48391;49.184;2.418;2022-10-16T06:02:36;0.03;;;0.00;;
62353;SDS011;48391;49.184;2.418;2022-10-16T06:05:02;0.00;;;0.00;;
62353;SDS011;48391;49.184;2.418;2022-10-16T06:07:28;0.00;;;0.00;;
62353;SDS011;48391;49.184;2.418;2022-10-16T06:09:54;0.00;;;0.00;;
62353;SDS011;48391;49.184;2.418;2022-10-16T06:12:20;0.30;;;0.30;;
62353;SDS011;48391;49.184;2.418;2022-10-16T06:14:46;0.10;;;0.00;;
62353;SDS011;48391;49.184;2.418;2022-10-16T06:17:13;0.00;;;0.00;;
62353;SDS011;48391;49.184;2.418;2022-10-16T06:19:39;0.00;;;0.00;;
62353;SDS011;48391;49.184;2.418;2022-10-16T06:22:06;0.00;;;0.00;;
62353;SDS011;48391;49.184;2.418;2022-10-16T06:24:32;0.00;;;0.00;;
62353;SDS011;48391;49.184;2.418;2022-10-16T06:26:58;0.00;;;0.00;;
62353;SDS011;48391;49.184;2.418;2022-10-16T06:29:24;0.30;;;0.10;;
62353;SDS011;48391;49.184;2.418;2022-10-16T06:31:50;0.10;;;0.10;;
62353;SDS011;48391;49.184;2.418;2022-10-16T06:34:16;0.20;;;0.13;;
62353;SDS011;48391;49.184;2.418;2022-10-16T06:36:42;0.05;;;0.00;;
62353;SDS011;48391;49.184;2.418;2022-10-16T06:39:08;0.17;;;0.00;;
62353;SDS011;48391;49.184;2.418;2022-10-16T06:41:34;0.20;;;0.10;;
62353;SDS011;48391;49.184;2.418;2022-10-16T06:44:00;0.10;;;0.00;;
62353;SDS011;48391;49.184;2.418;2022-10-16T06:46:27;0.00;;;0.00;;
62353;SDS011;48391;49.184;2.418;2022-10-16T06:48:53;0.10;;;0.00;;
62353;SDS011;48391;49.184;2.418;2022-10-16T06:51:20;0.00;;;0.00;;
62353;SDS011;48391;49.184;2.418;2022-10-16T06:53:47;0.38;;;0.05;;
62353;SDS011;48391;49.184;2.418;2022-10-16T06:56:20;0.10;;;0.00;;
62353;SDS011;48391;49.184;2.418;2022-10-16T06:58:47;0.20;;;0.10;;
62353;SDS011;48391;49.184;2.418;2022-10-16T07:01:14;0.10;;;0.00;;
62353;SDS011;48391;49.184;2.418;2022-10-16T07:03:41;0.10;;;0.10;;
62353;SDS011;48391;49.184;2.418;2022-10-16T07:06:08;0.00;;;0.00;;
62353;SDS011;48391;49.184;2.418;2022-10-16T07:08:35;0.15;;;0.00;;
62353;SDS011;48391;49.184;2.418;2022-10-16T07:11:02;0.10;;;0.10;;
62353;SDS011;48391;49.184;2.418;2022-10-16T07:13:29;0.75;;;0.00;;
62353;SDS011;48391;49.184;2.418;2022-10-16T07:15:55;0.10;;;0.10;;
62353;SDS011;48391;49.184;2.418;2022-10-16T07:18:21;0.10;;;0.10;;
62353;SDS011;48391;49.184;2.418;2022-10-16T07:20:51;0.10;;;0.00;;
62353;SDS011;48391;49.184;2.418;2022-10-16T07:23:17;0.25;;;0.13;;
62353;SDS011;48391;49.184;2.418;2022-10-16T07:25:43;0.00;;;0.00;;
62353;SDS011;48391;49.184;2.418;2022-10-16T07:28:09;0.10;;;0.10;;
62353;SDS011;48391;49.184;2.418;2022-10-16T07:30:35;0.60;;;0.20;;
62353;SDS011;48391;49.184;2.418;2022-10-16T07:33:02;0.75;;;0.00;;
62353;SDS011;48391;49.184;2.418;2022-10-16T07:35:28;0.20;;;0.10;;
62353;SDS011;48391;49.184;2.418;2022-10-16T07:37:54;0.22;;;0.17;;
62353;SDS011;48391;49.184;2.418;2022-10-16T07:40:20;0.08;;;0.00;;
62353;SDS011;48391;49.184;2.418;2022-10-16T07:42:46;0.00;;;0.00;;
62353;SDS011;48391;49.184;2.418;2022-10-16T07:45:12;0.00;;;0.00;;
62353;SDS011;48391;49.184;2.418;2022-10-16T07:47:38;0.10;;;0.00;;
62353;SDS011;48391;49.184;2.418;2022-10-16T07:50:04;0.35;;;0.00;;
62353;SDS011;48391;49.184;2.418;2022-10-16T07:52:30;0.10;;;0.00;;
62353;SDS011;48391;49.184;2.418;2022-10-16T07:54:56;0.00;;;0.00;;
62353;SDS011;48391;49.184;2.418;2022-10-16T07:57:22;0.13;;;0.00;;
62353;SDS011;48391;49.184;2.418;2022-10-16T07:59:48;0.00;;;0.00;;
62353;SDS011;48391;49.184;2.418;2022-10-16T08:02:14;0.00;;;0.00;;
62353;SDS011;48391;49.184;2.418;2022-10-16T08:04:40;0.00;;;0.00;;
62353;SDS011;48391;49.184;2.418;2022-10-16T08:07:07;0.00;;;0.00;;
62353;SDS011;48391;49.184;2.418;2022-10-16T08:09:33;0.00;;;0.00;;
62353;SDS011;48391;49.184;2.418;2022-10-16T08:11:59;0.00;;;0.00;;
62353;SDS011;48391;49.184;2.418;2022-10-16T08:14:25;0.10;;;0.00;;
62353;SDS011;48391;49.184;2.418;2022-10-16T08:16:51;0.00;;;0.00;;
62353;SDS011;48391;49.184;2.418;2022-10-16T08:19:18;0.00;;;0.00;;
62353;SDS011;48391;49.184;2.418;2022-10-16T08:21:46;0.10;;;0.10;;
62353;SDS011;48391;49.184;2.418;2022-10-16T08:24:12;0.08;;;0.00;;
62353;SDS011;48391;49.184;2.418;2022-10-16T08:26:38;0.70;;;0.10;;
62353;SDS011;48391;49.184;2.418;2022-10-16T08:29:04;0.00;;;0.00;;
62353;SDS011;48391;49.184;2.418;2022-10-16T08:31:30;0.20;;;0.10;;
62353;SDS011;48391;49.184;2.418;2022-10-16T08:33:56;0.05;;;0.00;;
62353;SDS011;48391;49.184;2.418;2022-10-16T08:36:22;0.63;;;0.00;;
62353;SDS011;48391;49.184;2.418;2022-10-16T08:38:49;0.30;;;0.00;;
62353;SDS011;48391;49.184;2.418;2022-10-16T08:41:23;0.40;;;0.00;;
62353;SDS011;48391;49.184;2.418;2022-10-16T08:44:00;0.30;;;0.10;;
62353;SDS011;48391;49.184;2.418;2022-10-16T08:46:46;0.20;;;0.20;;
62353;SDS011;48391;49.184;2.418;2022-10-16T08:49:15;0.10;;;0.00;;
62353;SDS011;48391;49.184;2.418;2022-10-16T08:51:41;0.08;;;0.00;;
62353;SDS011;48391;49.184;2.418;2022-10-16T08:54:21;0.20;;;0.10;;
62353;SDS011;48391;49.184;2.418;2022-10-16T08:56:48;1.55;;;0.00;;
62353;SDS011;48391;49.184;2.418;2022-10-16T08:59:14;0.28;;;0.00;;
62353;SDS011;48391;49.184;2.418;2022-10-16T09:01:44;0.45;;;0.20;;
62353;SDS011;48391;49.184;2.418;2022-10-16T09:07:04;0.50;;;0.10;;
62353;SDS011;48391;49.184;2.418;2022-10-16T09:09:39;0.43;;;0.10;;
62353;SDS011;48391;49.184;2.418;2022-10-16T09:12:12;0.10;;;0.00;;
62353;SDS011;48391;49.184;2.418;2022-10-16T09:17:12;0.32;;;0.10;;
62353;SDS011;48391;49.184;2.418;2022-10-16T09:19:45;0.38;;;0.00;;
62353;SDS011;48391;49.184;2.418;2022-10-16T09:22:15;0.28;;;0.20;;
62353;SDS011;48391;49.184;2.418;2022-10-16T09:24:41;0.10;;;0.00;;
62353;SDS011;48391;49.184;2.418;2022-10-16T09:27:10;0.30;;;0.10;;
62353;SDS011;48391;49.184;2.418;2022-10-16T09:29:37;0.57;;;0.30;;
62353;SDS011;48391;49.184;2.418;2022-10-16T09:32:11;0.13;;;0.10;;
62353;SDS011;48391;49.184;2.418;2022-10-16T09:34:39;0.35;;;0.35;;
62353;SDS011;48391;49.184;2.418;2022-10-16T09:37:10;0.77;;;0.30;;
62353;SDS011;48391;49.184;2.418;2022-10-16T09:39:48;1.02;;;0.30;;
62353;SDS011;48391;49.184;2.418;2022-10-16T09:44:47;0.32;;;0.08;;
62353;SDS011;48391;49.184;2.418;2022-10-16T09:47:23;0.20;;;0.10;;
62353;SDS011;48391;49.184;2.418;2022-10-16T09:49:50;1.85;;;0.20;;
62353;SDS011;48391;49.184;2.418;2022-10-16T09:52:20;0.52;;;0.30;;
62353;SDS011;48391;49.184;2.418;2022-10-16T09:55:28;0.20;;;0.13;;
62353;SDS011;48391;49.184;2.418;2022-10-16T09:57:35;0.28;;;0.10;;
62353;SDS011;48391;49.184;2.418;2022-10-16T10:00:04;0.20;;;0.10;;
62353;SDS011;48391;49.184;2.418;2022-10-16T10:02:35;0.57;;;0.20;;
62353;SDS011;48391;49.184;2.418;2022-10-16T10:05:03;0.10;;;0.00;;
62353;SDS011;48391;49.184;2.418;2022-10-16T10:07:31;0.45;;;0.17;;
62353;SDS011;48391;49.184;2.418;2022-10-16T10:09:58;1.17;;;0.35;;
62353;SDS011;48391;49.184;2.418;2022-10-16T10:12:25;0.80;;;0.10;;
62353;SDS011;48391;49.184;2.418;2022-10-16T10:14:53;0.30;;;0.20;;
62353;SDS011;48391;49.184;2.418;2022-10-16T10:17:21;1.48;;;0.77;;
62353;SDS011;48391;49.184;2.418;2022-10-16T10:19:54;1.70;;;0.40;;
62353;SDS011;48391;49.184;2.418;2022-10-16T10:25:00;0.60;;;0.32;;
62353;SDS011;48391;49.184;2.418;2022-10-16T10:27:49;0.35;;;0.13;;
62353;SDS011;48391;49.184;2.418;2022-10-16T10:33:03;0.10;;;0.00;;
62353;SDS011;48391;49.184;2.418;2022-10-16T10:36:20;1.55;;;0.15;;
62353;SDS011;48391;49.184;2.418;2022-10-16T10:41:09;0.45;;;0.10;;
62353;SDS011;48391;49.184;2.418;2022-10-16T10:46:08;0.50;;;0.25;;
62353;SDS011;48391;49.184;2.418;2022-10-16T10:51:11;0.35;;;0.35;;
62353;SDS011;48391;49.184;2.418;2022-10-16T11:07:04;0.05;;;0.00;;
62353;SDS011;48391;49.184;2.418;2022-10-16T11:09:31;0.43;;;0.15;;
62353;SDS011;48391;49.184;2.418;2022-10-16T11:14:41;0.10;;;0.10;;
62353;SDS011;48391;49.184;2.418;2022-10-16T11:17:10;0.10;;;0.00;;
62353;SDS011;48391;49.184;2.418;2022-10-16T11:22:38;0.38;;;0.17;;
62353;SDS011;48391;49.184;2.418;2022-10-16T11:25:13;0.00;;;0.00;;
62353;SDS011;48391;49.184;2.418;2022-10-16T11:30:24;0.10;;;0.00;;
62353;SDS011;48391;49.184;2.418;2022-10-16T11:35:24;1.90;;;0.52;;
62353;SDS011;48391;49.184;2.418;2022-10-16T11:37:51;0.10;;;0.10;;
62353;SDS011;48391;49.184;2.418;2022-10-16T11:40:22;0.10;;;0.03;;
62353;SDS011;48391;49.184;2.418;2022-10-16T11:42:52;0.22;;;0.20;;
62353;SDS011;48391;49.184;2.418;2022-10-16T11:45:39;0.00;;;0.00;;
62353;SDS011;48391;49.184;2.418;2022-10-16T11:55:32;0.77;;;0.20;;
62353;SDS011;48391;49.184;2.418;2022-10-16T11:58:02;0.68;;;0.10;;
62353;SDS011;48391;49.184;2.418;2022-10-16T12:05:24;2.03;;;0.20;;
62353;SDS011;48391;49.184;2.418;2022-10-16T12:07:53;0.10;;;0.10;;
62353;SDS011;48391;49.184;2.418;2022-10-16T12:10:27;0.30;;;0.13;;
62353;SDS011;48391;49.184;2.418;2022-10-16T12:12:53;0.10;;;0.10;;
62353;SDS011;48391;49.184;2.418;2022-10-16T12:17:47;0.35;;;0.10;;
62353;SDS011;48391;49.184;2.418;2022-10-16T12:23:21;0.15;;;0.13;;
62353;SDS011;48391;49.184;2.418;2022-10-16T12:25:35;0.50;;;0.00;;
62353;SDS011;48391;49.184;2.418;2022-10-16T12:28:15;0.63;;;0.10;;
62353;SDS011;48391;49.184;2.418;2022-10-16T12:30:43;1.02;;;0.10;;
62353;SDS011;48391;49.184;2.418;2022-10-16T12:33:43;0.10;;;0.10;;
62353;SDS011;48391;49.184;2.418;2022-10-16T12:36:02;0.00;;;0.00;;
62353;SDS011;48391;49.184;2.418;2022-10-16T12:38:30;0.20;;;0.13;;
62353;SDS011;48391;49.184;2.418;2022-10-16T12:40:59;0.52;;;0.13;;
62353;SDS011;48391;49.184;2.418;2022-10-16T12:43:36;0.00;;;0.00;;
62353;SDS011;48391;49.184;2.418;2022-10-16T12:48:36;1.10;;;0.00;;
62353;SDS011;48391;49.184;2.418;2022-10-16T12:53:37;0.13;;;0.10;;
62353;SDS011;48391;49.184;2.418;2022-10-16T12:56:08;0.20;;;0.05;;
62353;SDS011;48391;49.184;2.418;2022-10-16T13:01:19;1.00;;;0.10;;
62353;SDS011;48391;49.184;2.418;2022-10-16T13:03:55;0.20;;;0.20;;
62353;SDS011;48391;49.184;2.418;2022-10-16T13:21:36;0.43;;;0.10;;
62353;SDS011;48391;49.184;2.418;2022-10-16T13:24:14;0.57;;;0.08;;
62353;SDS011;48391;49.184;2.418;2022-10-16T13:29:11;0.63;;;0.30;;
62353;SDS011;48391;49.184;2.418;2022-10-16T13:31:38;0.15;;;0.13;;
62353;SDS011;48391;49.184;2.418;2022-10-16T13:34:05;0.68;;;0.10;;
62353;SDS011;48391;49.184;2.418;2022-10-16T13:36:48;0.20;;;0.20;;
62353;SDS011;48391;49.184;2.418;2022-10-16T13:41:57;0.00;;;0.00;;
62353;SDS011;48391;49.184;2.418;2022-10-16T13:44:23;0.10;;;0.08;;
62353;SDS011;48391;49.184;2.418;2022-10-16T13:46:59;0.00;;;0.00;;
62353;SDS011;48391;49.184;2.418;2022-10-16T13:49:25;0.13;;;0.10;;
62353;SDS011;48391;49.184;2.418;2022-10-16T13:51:55;0.10;;;0.08;;
62353;SDS011;48391;49.184;2.418;2022-10-16T13:54:21;0.20;;;0.15;;
62353;SDS011;48391;49.184;2.418;2022-10-16T13:56:48;0.10;;;0.00;;
62353;SDS011;48391;49.184;2.418;2022-10-16T13:59:27;0.10;;;0.10;;
62353;SDS011;48391;49.184;2.418;2022-10-16T14:01:58;0.20;;;0.13;;
62353;SDS011;48391;49.184;2.418;2022-10-16T14:04:24;0.10;;;0.05;;
62353;SDS011;48391;49.184;2.418;2022-10-16T14:06:54;0.10;;;0.00;;
62353;SDS011;48391;49.184;2.418;2022-10-16T14:11:50;0.10;;;0.00;;
62353;SDS011;48391;49.184;2.418;2022-10-16T14:14:17;0.00;;;0.00;;
62353;SDS011;48391;49.184;2.418;2022-10-16T14:16:43;0.00;;;0.00;;
62353;SDS011;48391;49.184;2.418;2022-10-16T14:19:27;1.50;;;0.00;;
62353;SDS011;48391;49.184;2.418;2022-10-16T14:21:54;0.00;;;0.00;;
62353;SDS011;48391;49.184;2.418;2022-10-16T14:24:30;0.03;;;0.03;;
62353;SDS011;48391;49.184;2.418;2022-10-16T14:26:57;0.00;;;0.00;;
62353;SDS011;48391;49.184;2.418;2022-10-16T14:29:24;0.03;;;0.03;;
62353;SDS011;48391;49.184;2.418;2022-10-16T14:32:20;0.10;;;0.00;;
62353;SDS011;48391;49.184;2.418;2022-10-16T14:34:40;0.30;;;0.10;;
62353;SDS011;48391;49.184;2.418;2022-10-16T14:37:08;0.30;;;0.13;;
62353;SDS011;48391;49.184;2.418;2022-10-16T14:39:35;0.10;;;0.10;;
62353;SDS011;48391;49.184;2.418;2022-10-16T14:42:01;0.22;;;0.20;;
62353;SDS011;48391;49.184;2.418;2022-10-16T14:44:28;0.15;;;0.08;;
62353;SDS011;48391;49.184;2.418;2022-10-16T14:46:55;0.10;;;0.10;;
62353;SDS011;48391;49.184;2.418;2022-10-16T14:49:21;0.10;;;0.10;;
62353;SDS011;48391;49.184;2.418;2022-10-16T14:51:48;0.22;;;0.22;;
62353;SDS011;48391;49.184;2.418;2022-10-16T14:54:15;0.00;;;0.00;;
62353;SDS011;48391;49.184;2.418;2022-10-16T14:56:46;0.20;;;0.05;;
62353;SDS011;48391;49.184;2.418;2022-10-16T14:59:24;0.38;;;0.10;;
62353;SDS011;48391;49.184;2.418;2022-10-16T15:01:51;0.22;;;0.22;;
62353;SDS011;48391;49.184;2.418;2022-10-16T15:04:17;0.10;;;0.10;;
62353;SDS011;48391;49.184;2.418;2022-10-16T15:06:43;0.20;;;0.10;;
62353;SDS011;48391;49.184;2.418;2022-10-16T15:09:09;0.10;;;0.10;;
62353;SDS011;48391;49.184;2.418;2022-10-16T15:11:35;0.10;;;0.00;;
62353;SDS011;48391;49.184;2.418;2022-10-16T15:14:02;0.40;;;0.05;;
62353;SDS011;48391;49.184;2.418;2022-10-16T15:16:28;0.45;;;0.10;;
62353;SDS011;48391;49.184;2.418;2022-10-16T15:18:54;0.08;;;0.00;;
62353;SDS011;48391;49.184;2.418;2022-10-16T15:21:22;0.10;;;0.10;;
62353;SDS011;48391;49.184;2.418;2022-10-16T15:23:49;0.63;;;0.03;;
62353;SDS011;48391;49.184;2.418;2022-10-16T15:26:15;0.10;;;0.00;;
62353;SDS011;48391;49.184;2.418;2022-10-16T15:28:41;0.00;;;0.00;;
62353;SDS011;48391;49.184;2.418;2022-10-16T15:31:07;0.22;;;0.20;;
62353;SDS011;48391;49.184;2.418;2022-10-16T15:33:33;0.10;;;0.10;;
62353;SDS011;48391;49.184;2.418;2022-10-16T15:36:00;0.13;;;0.10;;
62353;SDS011;48391;49.184;2.418;2022-10-16T15:38:27;0.10;;;0.00;;
62353;SDS011;48391;49.184;2.418;2022-10-16T15:40:53;0.05;;;0.00;;
62353;SDS011;48391;49.184;2.418;2022-10-16T15:43:19;0.00;;;0.00;;
62353;SDS011;48391;49.184;2.418;2022-10-16T15:46:19;0.13;;;0.00;;
62353;SDS011;48391;49.184;2.418;2022-10-16T15:48:39;0.10;;;0.10;;
62353;SDS011;48391;49.184;2.418;2022-10-16T15:51:06;0.22;;;0.22;;
62353;SDS011;48391;49.184;2.418;2022-10-16T15:53:32;0.10;;;0.10;;
62353;SDS011;48391;49.184;2.418;2022-10-16T15:56:01;0.68;;;0.20;;
62353;SDS011;48391;49.184;2.418;2022-10-16T15:58:27;0.10;;;0.05;;
62353;SDS011;48391;49.184;2.418;2022-10-16T16:00:57;0.10;;;0.10;;
62353;SDS011;48391;49.184;2.418;2022-10-16T16:03:25;0.10;;;0.10;;
62353;SDS011;48391;49.184;2.418;2022-10-16T16:05:52;0.32;;;0.10;;
62353;SDS011;48391;49.184;2.418;2022-10-16T16:08:18;0.20;;;0.20;;
62353;SDS011;48391;49.184;2.418;2022-10-16T16:10:44;0.20;;;0.10;;
62353;SDS011;48391;49.184;2.418;2022-10-16T16:13:10;0.10;;;0.10;;
62353;SDS011;48391;49.184;2.418;2022-10-16T16:15:39;0.00;;;0.00;;
62353;SDS011;48391;49.184;2.418;2022-10-16T16:18:05;0.52;;;0.10;;
62353;SDS011;48391;49.184;2.418;2022-10-16T16:20:31;0.10;;;0.10;;
62353;SDS011;48391;49.184;2.418;2022-10-16T16:22:57;0.20;;;0.05;;
62353;SDS011;48391;49.184;2.418;2022-10-16T16:25:24;0.10;;;0.10;;
62353;SDS011;48391;49.184;2.418;2022-10-16T16:27:50;0.63;;;0.63;;
62353;SDS011;48391;49.184;2.418;2022-10-16T16:30:16;0.10;;;0.10;;
62353;SDS011;48391;49.184;2.418;2022-10-16T16:32:44;0.45;;;0.20;;
62353;SDS011;48391;49.184;2.418;2022-10-16T16:35:10;0.25;;;0.25;;
62353;SDS011;48391;49.184;2.418;2022-10-16T16:37:36;1.75;;;0.17;;
62353;SDS011;48391;49.184;2.418;2022-10-16T16:40:02;0.35;;;0.20;;
62353;SDS011;48391;49.184;2.418;2022-10-16T16:42:28;0.40;;;0.30;;
62353;SDS011;48391;49.184;2.418;2022-10-16T16:44:54;0.52;;;0.52;;
62353;SDS011;48391;49.184;2.418;2022-10-16T16:47:20;0.40;;;0.32;;